Lr2 Pioneer — VREE7 — position and weather

sailwx.info

Track history (hours):
 
Tides and Currents Weather Stations Pressure Air Temp Water Temp Dewpoint Dewpoint Depression Visibility Wind Speed Wind Dir Waves Ship Positions

Lr2 Pioneer

Last reported at 2014-Oct-11 12:32 UTC. Time now 2014-Oct-30 23:52 UTC.
Position N 01°13' E 103°31'.
Warning: this ship's position is 19 days out of date.

Length 244 m; draft 8 m.

Type: Ship. MMSI: 477114400.

Date/timePositionNaut miles runAvg speedWind from/ knotsBaromVisibWave heightAir tempDewpointWater temp
2014-Oct-11 12:32N 01°13' E 103°31'9 9.6
2014-Oct-11 11:33N 01°12' E 103°40'1 0.8
2014-Oct-11 10:33N 01°12' E 103°41'0 0.0
2014-Oct-11 09:33N 01°12' E 103°41'0 0.0
2014-Oct-11 08:27N 01°12' E 103°41'3 2.9
2014-Oct-11 07:33N 01°15' E 103°42'0 0.0
2014-Oct-10 08:30N 01°15' E 103°41'0 0.0
2014-Oct-10 07:33N 01°15' E 103°41'0 0.0
2014-Oct-10 02:15N 01°15' E 103°41'0 0.0
2014-Oct-10 01:33N 01°15' E 103°41'0 0.0
2014-Oct-10 00:30N 01°15' E 103°41'0 0.0
2014-Oct-09 23:33N 01°15' E 103°41'0 0.0
2014-Oct-09 22:33N 01°15' E 103°41'0 0.0
2014-Oct-09 21:30N 01°15' E 103°41'0 0.0
2014-Oct-09 20:30N 01°15' E 103°41'0 0.0
2014-Oct-09 19:33N 01°15' E 103°41'0 0.0
2014-Oct-09 18:33N 01°15' E 103°41'0 0.0
2014-Oct-09 17:27N 01°15' E 103°41'0 0.0
2014-Oct-09 16:33N 01°15' E 103°41'0 0.0
2014-Oct-09 15:33N 01°15' E 103°41'0 0.0
2014-Oct-09 14:33N 01°15' E 103°41'0 0.0
2014-Oct-09 13:30N 01°15' E 103°41'0 0.0
2014-Oct-09 12:30N 01°15' E 103°41'0 0.0
2014-Oct-09 11:30N 01°15' E 103°41'0 0.1
2014-Oct-09 10:34N 01°15' E 103°41'1 1.5
2014-Oct-09 09:34N 01°13' E 103°42'2 2.3
2014-Oct-09 08:33N 01°12' E 103°40'1 1.3
2014-Oct-09 07:28N 01°11' E 103°42'0 0.1
2014-Oct-09 06:31N 01°11' E 103°42'0 0.0
2014-Oct-09 05:28N 01°11' E 103°42'0 0.0
2014-Oct-09 04:19N 01°11' E 103°42'0 0.0
2014-Oct-09 03:31N 01°11' E 103°42'0 0.2
2014-Oct-09 02:31N 01°11' E 103°41'0 0.1
2014-Oct-09 01:31N 01°11' E 103°41'0 0.0
2014-Oct-09 00:31N 01°11' E 103°41'0 0.0
2014-Oct-08 23:31N 01°11' E 103°41'0 0.1
2014-Oct-08 22:31N 01°11' E 103°41'0 0.0
2014-Oct-08 21:31N 01°11' E 103°41'0 0.0
2014-Oct-08 20:31N 01°11' E 103°41'0 0.1
2014-Oct-08 19:31N 01°11' E 103°41'0 0.1
2014-Oct-08 18:31N 01°11' E 103°42'0 0.1
2014-Oct-08 17:31N 01°11' E 103°42'0 0.2
2014-Oct-08 16:31N 01°11' E 103°42'0 0.1
2014-Oct-08 15:31N 01°11' E 103°41'0 0.1
2014-Oct-08 14:28N 01°11' E 103°41'0 0.0
2014-Oct-08 13:31N 01°11' E 103°41'0 0.0
2014-Oct-08 12:31N 01°11' E 103°41'0 0.0
2014-Oct-08 11:28N 01°11' E 103°41'0 0.1
2014-Oct-08 10:31N 01°11' E 103°41'0 0.1
2014-Oct-08 09:31N 01°11' E 103°42'0 0.1
2014-Oct-08 08:31N 01°11' E 103°42'0 0.1
2014-Oct-08 07:31N 01°11' E 103°42'4 3.9
2014-Oct-08 06:33N 01°09' E 103°45'5 4.9
2014-Oct-08 05:33N 01°11' E 103°49'5 4.5
2014-Oct-08 04:33N 01°13' E 103°53'6 6.4
2014-Oct-08 03:33N 01°15' E 103°59'7 6.7
2014-Oct-08 02:28N 01°16' E 104°06'7 6.9
2014-Oct-08 01:31N 01°18' E 104°13'  
Track history (hours):
 
Tides and Currents Weather Stations Pressure Air Temp Water Temp Dewpoint Dewpoint Depression Visibility Wind Speed Wind Dir Waves Ship Positions

Lr2 Pioneer

Last reported at 2014-Oct-11 12:32 UTC. Time now 2014-Oct-30 23:52 UTC.
Position N 01°13' E 103°31'.
Warning: this ship's position is 19 days out of date.

Length 244 m; draft 8 m.

Type: Ship. MMSI: 477114400.

Date/timePositionNaut miles runAvg speedWind from/ knotsBaromVisibWave heightAir tempDewpointWater temp
2014-Oct-11 12:32N 01°13' E 103°31'9 9.6
2014-Oct-11 11:33N 01°12' E 103°40'1 0.8
2014-Oct-11 10:33N 01°12' E 103°41'0 0.0
2014-Oct-11 09:33N 01°12' E 103°41'0 0.0
2014-Oct-11 08:27N 01°12' E 103°41'3 2.9
2014-Oct-11 07:33N 01°15' E 103°42'0 0.0
2014-Oct-10 08:30N 01°15' E 103°41'0 0.0
2014-Oct-10 07:33N 01°15' E 103°41'0 0.0
2014-Oct-10 02:15N 01°15' E 103°41'0 0.0
2014-Oct-10 01:33N 01°15' E 103°41'0 0.0
2014-Oct-10 00:30N 01°15' E 103°41'0 0.0
2014-Oct-09 23:33N 01°15' E 103°41'0 0.0
2014-Oct-09 22:33N 01°15' E 103°41'0 0.0
2014-Oct-09 21:30N 01°15' E 103°41'0 0.0
2014-Oct-09 20:30N 01°15' E 103°41'0 0.0
2014-Oct-09 19:33N 01°15' E 103°41'0 0.0
2014-Oct-09 18:33N 01°15' E 103°41'0 0.0
2014-Oct-09 17:27N 01°15' E 103°41'0 0.0
2014-Oct-09 16:33N 01°15' E 103°41'0 0.0
2014-Oct-09 15:33N 01°15' E 103°41'0 0.0
2014-Oct-09 14:33N 01°15' E 103°41'0 0.0
2014-Oct-09 13:30N 01°15' E 103°41'0 0.0
2014-Oct-09 12:30N 01°15' E 103°41'0 0.0
2014-Oct-09 11:30N 01°15' E 103°41'0 0.1
2014-Oct-09 10:34N 01°15' E 103°41'1 1.5
2014-Oct-09 09:34N 01°13' E 103°42'2 2.3
2014-Oct-09 08:33N 01°12' E 103°40'1 1.3
2014-Oct-09 07:28N 01°11' E 103°42'0 0.1
2014-Oct-09 06:31N 01°11' E 103°42'0 0.0
2014-Oct-09 05:28N 01°11' E 103°42'0 0.0
2014-Oct-09 04:19N 01°11' E 103°42'0 0.0
2014-Oct-09 03:31N 01°11' E 103°42'0 0.2
2014-Oct-09 02:31N 01°11' E 103°41'0 0.1
2014-Oct-09 01:31N 01°11' E 103°41'0 0.0
2014-Oct-09 00:31N 01°11' E 103°41'0 0.0
2014-Oct-08 23:31N 01°11' E 103°41'0 0.1
2014-Oct-08 22:31N 01°11' E 103°41'0 0.0
2014-Oct-08 21:31N 01°11' E 103°41'0 0.0
2014-Oct-08 20:31N 01°11' E 103°41'0 0.1
2014-Oct-08 19:31N 01°11' E 103°41'0 0.1
2014-Oct-08 18:31N 01°11' E 103°42'0 0.1
2014-Oct-08 17:31N 01°11' E 103°42'0 0.2
2014-Oct-08 16:31N 01°11' E 103°42'0 0.1
2014-Oct-08 15:31N 01°11' E 103°41'0 0.1
2014-Oct-08 14:28N 01°11' E 103°41'0 0.0
2014-Oct-08 13:31N 01°11' E 103°41'0 0.0
2014-Oct-08 12:31N 01°11' E 103°41'0 0.0
2014-Oct-08 11:28N 01°11' E 103°41'0 0.1
2014-Oct-08 10:31N 01°11' E 103°41'0 0.1
2014-Oct-08 09:31N 01°11' E 103°42'0 0.1
2014-Oct-08 08:31N 01°11' E 103°42'0 0.1
2014-Oct-08 07:31N 01°11' E 103°42'4 3.9
2014-Oct-08 06:33N 01°09' E 103°45'5 4.9
2014-Oct-08 05:33N 01°11' E 103°49'5 4.5
2014-Oct-08 04:33N 01°13' E 103°53'6 6.4
2014-Oct-08 03:33N 01°15' E 103°59'7 6.7
2014-Oct-08 02:28N 01°16' E 104°06'7 6.9
2014-Oct-08 01:31N 01°18' E 104°13'  

Dump ship's entire track history